»·PEaware :: N660WC KSNA-KSNA

N660WC :: KSNA-KSNA

FLIGHT INFORMATION

Flight Status: Arrived
Operator: Privately registered:
United States
More flights under this callsign
Pilot: John H. (7647)
Aircraft: CESSNA T210 TURBO CENTURION
(T210)
More flights by this aircraft type
Origin: KSNA John Wayne-Orange Co
United States
Destination: KSNA John Wayne-Orange Co
United States
More flights between these airports :: More routes between these airports
Route: +SLI
File this flight plan on PilotEdge
Remarks: I1 Rating
Altitude:
(Current/Filed)
3,000ft
Speed:
(Current/Filed)
170kts
Departed: 31-Aug-18 01:55 PM
Arrived: 31-Aug-18 02:19 PM
Distance/Time
Traveled:
0nm/0:24
Distance/Time
To Go:
Arrived

Flight Plot

Page will automatically refresh every two minutes.


Map Options




Map Legend


Flown Route
Filed Route
Departure Airport
Arrival Airport
Navaid (VOR, NDB)
Fix

Horizontal Profiles

Position Reports

Time Latitude Longitude Heading Altitude Ground
Speed
31-Aug-18 13:43 33.675631 -117.871057 39 60ft 0kts
31-Aug-18 13:44 33.675631 -117.871057 39 60ft 0kts
31-Aug-18 13:45 33.675631 -117.871057 39 60ft 0kts
31-Aug-18 13:46 33.675631 -117.871057 39 60ft 0kts
31-Aug-18 13:47 33.675631 -117.871057 39 60ft 0kts
31-Aug-18 13:48 33.675631 -117.871057 39 60ft 0kts
31-Aug-18 13:49 33.675631 -117.871057 39 60ft 0kts
31-Aug-18 13:50 33.675631 -117.871056 39 60ft 0kts
31-Aug-18 13:51 33.676395 -117.869890 26 60ft 10kts
31-Aug-18 13:52 33.678843 -117.868391 24 60ft 14kts
31-Aug-18 13:53 33.681206 -117.866863 70 60ft 10kts
31-Aug-18 13:54 33.681188 -117.866406 116 60ft 0kts
31-Aug-18 13:55 33.680227 -117.865910 204 60ft 26kts
31-Aug-18 13:56 33.660576 -117.880625 227 383ft 109kts
31-Aug-18 13:57 33.640139 -117.910774 232 1187ft 112kts
31-Aug-18 13:58 33.627405 -117.940992 295 2160ft 106kts
31-Aug-18 13:59 33.649558 -117.951108 349 3011ft 94kts
31-Aug-18 14:00 33.676562 -117.955316 351 3113ft 134kts
31-Aug-18 14:01 33.708354 -117.960516 352 3107ft 152kts
31-Aug-18 14:02 33.738755 -117.966422 350 2994ft 156kts
31-Aug-18 14:03 33.768803 -117.972150 352 2991ft 151kts
31-Aug-18 14:04 33.794708 -117.959887 30 2991ft 139kts
31-Aug-18 14:05 33.816913 -117.942493 30 2964ft 134kts
31-Aug-18 14:06 33.839172 -117.924711 31 2968ft 135kts
31-Aug-18 14:07 33.862546 -117.906863 31 2973ft 144kts
31-Aug-18 14:08 33.881388 -117.880944 60 2971ft 150kts
31-Aug-18 14:09 33.896258 -117.849753 60 2972ft 150kts
31-Aug-18 14:10 33.893558 -117.815738 119 2967ft 142kts
31-Aug-18 14:11 33.878849 -117.783629 120 2990ft 138kts
31-Aug-18 14:12 33.856332 -117.763425 177 2996ft 135kts
31-Aug-18 14:13 33.824615 -117.772928 212 2971ft 135kts
31-Aug-18 14:14 33.793108 -117.794099 211 2536ft 137kts
31-Aug-18 14:15 33.763875 -117.812882 210 1876ft 112kts
31-Aug-18 14:16 33.740538 -117.827576 209 1395ft 96kts
31-Aug-18 14:17 33.718555 -117.841558 208 901ft 97kts
31-Aug-18 14:18 33.696695 -117.855534 210 409ft 82kts
31-Aug-18 14:19 33.679974 -117.866059 205 68ft 70kts
31-Aug-18 14:20 33.675851 -117.869530 305 60ft 0kts
31-Aug-18 14:21 33.675935 -117.870948 209 60ft 0kts
31-Aug-18 14:22 33.675936 -117.870948 209 60ft 0kts
31-Aug-18 14:23 33.675936 -117.870948 209 60ft 0kts
31-Aug-18 14:24 33.675936 -117.870948 209 60ft 0kts
31-Aug-18 14:25 33.675936 -117.870948 209 60ft 0kts
31-Aug-18 14:26 33.675936 -117.870948 209 60ft 0kts
31-Aug-18 14:27 33.675936 -117.870948 209 60ft 0kts
31-Aug-18 14:28 33.675936 -117.870948 209 60ft 0kts
31-Aug-18 14:29 33.675936 -117.870948 209 60ft 0kts
31-Aug-18 14:30 33.675936 -117.870948 209 60ft 0kts
31-Aug-18 14:31 33.675936 -117.870948 209 60ft 0kts
31-Aug-18 14:32 33.675936 -117.870948 209 60ft 0kts
31-Aug-18 14:33 33.675936 -117.870948 209 60ft 0kts
31-Aug-18 14:34 33.675936 -117.870948 209 60ft 0kts

Navigation Log

Ident Type
1. KSNA Airport
2. SLI Navaid
3. KSNA Airport